Pagina principale
METAR-TAF:

Aeroporti :

Genova, Italia

Aeroporto di Genova-Sestri

latitudine: 44-25N, longitudine: 008-51E, altezza: 2 m

Osservazione

Il bollettino è stato emesso 21 minuti fa, alle 20:20 UTC
Vento 3 kt da nord-est, variando fra nord e est
Temperature 24°C
Umidità 74%
Pressione 1019 hPa
Visibilità 10 km o più
Nubi sparse ad un'altezza di 1500 ft

METAR: LIMJ 282020Z 04003KT 360V080 9999 SCT015 24/19 Q1019

Ora: 22:41 (20:41 UTC)

Previsione

Il bollettino è stato emesso 3 ore e 41 minuti fa, alle 17:00 UTC
Previsione valida dal 28 alle 18 UTC al 29 alle 18 UTC
Vento 7 kt da sud-est
Visibilità 10 km o più
Nubi sparse ad un'altezza di 2000 ft

TAF: LIMJ 281700Z 2818/2918 14007KT 9999 SCT020

METAR-TAF

Osservazioni e previsioni meteorologiche di più di 4000 aeroporti (messaggi METAR e TAF).

Le stazioni disponibili sono rappresentate dai dischi gialli e rossi sulla carta.

Puntare il mouse per vedere il nome della stazione.

Clicca sopra per visualizzare le osservazioni e previsioni meteorologiche.

Per cambiare la mappa : fare clic sui pulsanti verdi con una croce nera per ingrandire, il pulsante verde con un trattino per diminuire, o sulla freccia verde per le mappe adiacenti.


METAR-TAF: